sensor_id;sensor_type;location;lat;lon;timestamp;pressure;altitude;pressure_sealevel;temperature;humidity
40872;BME280;26591;43.264;26.940;2023-03-13T00:01:58;99308.53;;;4.80;65.52
40872;BME280;26591;43.264;26.940;2023-03-13T00:04:25;99321.09;;;4.65;65.55
40872;BME280;26591;43.264;26.940;2023-03-13T00:06:50;99321.44;;;4.61;66.10
40872;BME280;26591;43.264;26.940;2023-03-13T00:09:16;99318.56;;;4.64;66.19
40872;BME280;26591;43.264;26.940;2023-03-13T00:11:43;99320.84;;;4.68;65.37
40872;BME280;26591;43.264;26.940;2023-03-13T00:14:10;99320.81;;;4.80;65.46
40872;BME280;26591;43.264;26.940;2023-03-13T00:16:36;99320.69;;;4.81;65.24
40872;BME280;26591;43.264;26.940;2023-03-13T00:19:05;99321.03;;;4.99;64.85
40872;BME280;26591;43.264;26.940;2023-03-13T00:21:31;99324.44;;;5.11;64.52
40872;BME280;26591;43.264;26.940;2023-03-13T00:23:58;99322.16;;;5.18;64.84
40872;BME280;26591;43.264;26.940;2023-03-13T00:26:25;99319.31;;;5.42;64.47
40872;BME280;26591;43.264;26.940;2023-03-13T00:28:52;99325.66;;;5.40;63.93
40872;BME280;26591;43.264;26.940;2023-03-13T00:31:22;99324.72;;;5.62;63.51
40872;BME280;26591;43.264;26.940;2023-03-13T00:33:50;99327.22;;;5.63;63.10
40872;BME280;26591;43.264;26.940;2023-03-13T00:36:24;99333.88;;;5.68;62.89
40872;BME280;26591;43.264;26.940;2023-03-13T00:38:51;99335.31;;;5.72;62.81
40872;BME280;26591;43.264;26.940;2023-03-13T00:41:19;99329.72;;;5.44;62.99
40872;BME280;26591;43.264;26.940;2023-03-13T00:44:06;99325.72;;;5.28;62.92
40872;BME280;26591;43.264;26.940;2023-03-13T00:46:35;99326.06;;;5.24;62.86
40872;BME280;26591;43.264;26.940;2023-03-13T00:49:01;99324.81;;;5.39;63.39
40872;BME280;26591;43.264;26.940;2023-03-13T00:51:27;99317.41;;;5.44;62.53
40872;BME280;26591;43.264;26.940;2023-03-13T00:53:54;99322.03;;;5.52;62.73
40872;BME280;26591;43.264;26.940;2023-03-13T00:56:20;99317.22;;;5.57;63.08
40872;BME280;26591;43.264;26.940;2023-03-13T00:58:47;99332.03;;;5.58;62.71
40872;BME280;26591;43.264;26.940;2023-03-13T01:03:52;99328.41;;;5.38;63.18
40872;BME280;26591;43.264;26.940;2023-03-13T01:06:20;99320.78;;;5.35;63.41
40872;BME280;26591;43.264;26.940;2023-03-13T01:08:47;99324.47;;;5.44;63.30
40872;BME280;26591;43.264;26.940;2023-03-13T01:11:16;99321.84;;;5.65;62.65
40872;BME280;26591;43.264;26.940;2023-03-13T01:13:42;99328.78;;;5.66;62.47
40872;BME280;26591;43.264;26.940;2023-03-13T01:16:17;99339.06;;;5.58;62.72
40872;BME280;26591;43.264;26.940;2023-03-13T01:18:50;99343.91;;;5.41;63.26
40872;BME280;26591;43.264;26.940;2023-03-13T01:21:16;99340.56;;;5.39;62.76
40872;BME280;26591;43.264;26.940;2023-03-13T01:23:44;99338.91;;;5.59;62.74
40872;BME280;26591;43.264;26.940;2023-03-13T01:26:10;99342.97;;;5.63;62.49
40872;BME280;26591;43.264;26.940;2023-03-13T01:28:36;99347.25;;;5.64;62.39
40872;BME280;26591;43.264;26.940;2023-03-13T01:31:14;99349.50;;;5.69;62.12
40872;BME280;26591;43.264;26.940;2023-03-13T01:33:40;99348.53;;;5.70;62.66
40872;BME280;26591;43.264;26.940;2023-03-13T01:36:06;99348.31;;;5.41;62.52
40872;BME280;26591;43.264;26.940;2023-03-13T01:38:33;99351.25;;;4.60;65.13
40872;BME280;26591;43.264;26.940;2023-03-13T01:40:58;99356.34;;;4.72;65.17
40872;BME280;26591;43.264;26.940;2023-03-13T01:43:26;99355.06;;;4.33;66.13
40872;BME280;26591;43.264;26.940;2023-03-13T01:46:15;99361.47;;;4.51;66.06
40872;BME280;26591;43.264;26.940;2023-03-13T01:49:08;99367.88;;;4.13;67.08
40872;BME280;26591;43.264;26.940;2023-03-13T01:51:39;99369.75;;;3.88;68.00
40872;BME280;26591;43.264;26.940;2023-03-13T01:57:04;99377.59;;;3.53;69.89
40872;BME280;26591;43.264;26.940;2023-03-13T01:59:41;99376.72;;;3.03;71.25
40872;BME280;26591;43.264;26.940;2023-03-13T02:02:08;99385.09;;;3.33;71.14
40872;BME280;26591;43.264;26.940;2023-03-13T02:04:44;99392.84;;;3.34;71.42
40872;BME280;26591;43.264;26.940;2023-03-13T02:07:14;99395.63;;;3.69;70.38
40872;BME280;26591;43.264;26.940;2023-03-13T02:09:43;99395.81;;;4.01;69.79
40872;BME280;26591;43.264;26.940;2023-03-13T02:12:21;99398.03;;;4.19;69.14
40872;BME280;26591;43.264;26.940;2023-03-13T02:14:51;99404.94;;;4.42;68.14
40872;BME280;26591;43.264;26.940;2023-03-13T02:17:17;99400.78;;;4.40;68.33
40872;BME280;26591;43.264;26.940;2023-03-13T02:19:45;99402.22;;;4.44;67.66
40872;BME280;26591;43.264;26.940;2023-03-13T02:22:33;99410.69;;;4.48;68.01
40872;BME280;26591;43.264;26.940;2023-03-13T02:28:33;99418.31;;;4.39;67.49
40872;BME280;26591;43.264;26.940;2023-03-13T02:30:42;99424.03;;;4.45;67.01
40872;BME280;26591;43.264;26.940;2023-03-13T02:33:09;99429.75;;;4.38;66.69
40872;BME280;26591;43.264;26.940;2023-03-13T02:35:35;99433.78;;;4.42;66.77
40872;BME280;26591;43.264;26.940;2023-03-13T02:38:04;99431.44;;;4.51;66.70
40872;BME280;26591;43.264;26.940;2023-03-13T02:40:34;99438.19;;;4.42;66.72
40872;BME280;26591;43.264;26.940;2023-03-13T02:43:02;99437.47;;;4.28;66.84
40872;BME280;26591;43.264;26.940;2023-03-13T02:45:29;99437.97;;;4.34;66.51
40872;BME280;26591;43.264;26.940;2023-03-13T02:47:54;99440.59;;;4.34;66.45
40872;BME280;26591;43.264;26.940;2023-03-13T02:50:33;99439.72;;;4.33;66.03
40872;BME280;26591;43.264;26.940;2023-03-13T02:53:03;99444.03;;;4.34;66.06
40872;BME280;26591;43.264;26.940;2023-03-13T02:55:38;99449.25;;;4.34;66.44
40872;BME280;26591;43.264;26.940;2023-03-13T02:58:04;99442.47;;;4.32;65.48
40872;BME280;26591;43.264;26.940;2023-03-13T03:00:29;99442.34;;;4.33;66.28
40872;BME280;26591;43.264;26.940;2023-03-13T03:02:55;99450.34;;;4.32;65.91
40872;BME280;26591;43.264;26.940;2023-03-13T03:05:21;99452.53;;;4.13;65.96
40872;BME280;26591;43.264;26.940;2023-03-13T03:07:48;99454.91;;;4.05;66.71
40872;BME280;26591;43.264;26.940;2023-03-13T03:10:15;99459.00;;;4.21;66.72
40872;BME280;26591;43.264;26.940;2023-03-13T03:12:40;99457.88;;;4.01;66.49
40872;BME280;26591;43.264;26.940;2023-03-13T03:15:07;99449.22;;;4.11;66.76
40872;BME280;26591;43.264;26.940;2023-03-13T03:17:34;99453.59;;;4.11;66.62
40872;BME280;26591;43.264;26.940;2023-03-13T03:20:01;99462.31;;;4.11;66.87
40872;BME280;26591;43.264;26.940;2023-03-13T03:22:26;99466.75;;;3.98;66.87
40872;BME280;26591;43.264;26.940;2023-03-13T03:24:52;99472.47;;;2.80;68.74
40872;BME280;26591;43.264;26.940;2023-03-13T03:27:17;99476.13;;;2.52;70.24
40872;BME280;26591;43.264;26.940;2023-03-13T03:29:43;99484.28;;;2.73;70.16
40872;BME280;26591;43.264;26.940;2023-03-13T03:32:08;99484.50;;;2.83;69.25
40872;BME280;26591;43.264;26.940;2023-03-13T03:34:33;99495.88;;;2.95;69.73
40872;BME280;26591;43.264;26.940;2023-03-13T03:36:59;99481.97;;;3.07;69.37
40872;BME280;26591;43.264;26.940;2023-03-13T03:39:24;99488.34;;;3.16;69.09
40872;BME280;26591;43.264;26.940;2023-03-13T03:41:50;99495.00;;;3.33;67.90
40872;BME280;26591;43.264;26.940;2023-03-13T03:44:15;99496.13;;;3.42;67.57
40872;BME280;26591;43.264;26.940;2023-03-13T03:46:41;99490.81;;;3.30;67.57
40872;BME280;26591;43.264;26.940;2023-03-13T03:49:06;99493.53;;;3.29;67.68
40872;BME280;26591;43.264;26.940;2023-03-13T03:51:32;99495.59;;;3.36;67.32
40872;BME280;26591;43.264;26.940;2023-03-13T03:53:57;99504.78;;;3.42;67.08
40872;BME280;26591;43.264;26.940;2023-03-13T03:56:23;99506.88;;;3.50;66.83
40872;BME280;26591;43.264;26.940;2023-03-13T03:58:48;99511.78;;;3.55;67.24
40872;BME280;26591;43.264;26.940;2023-03-13T04:01:14;99514.53;;;3.40;67.29
40872;BME280;26591;43.264;26.940;2023-03-13T04:03:39;99521.44;;;3.41;67.51
40872;BME280;26591;43.264;26.940;2023-03-13T04:06:05;99523.50;;;3.12;67.58
40872;BME280;26591;43.264;26.940;2023-03-13T04:08:31;99524.53;;;3.09;68.31
40872;BME280;26591;43.264;26.940;2023-03-13T04:10:59;99526.09;;;2.99;68.17
40872;BME280;26591;43.264;26.940;2023-03-13T04:13:24;99535.41;;;3.03;68.46
40872;BME280;26591;43.264;26.940;2023-03-13T04:15:50;99536.25;;;3.16;68.24
40872;BME280;26591;43.264;26.940;2023-03-13T04:18:22;99525.78;;;3.03;68.46
40872;BME280;26591;43.264;26.940;2023-03-13T04:20:47;99531.25;;;2.87;68.74
40872;BME280;26591;43.264;26.940;2023-03-13T04:23:13;99534.56;;;2.77;68.91
40872;BME280;26591;43.264;26.940;2023-03-13T04:25:38;99547.44;;;2.80;68.77
40872;BME280;26591;43.264;26.940;2023-03-13T04:28:04;99551.84;;;3.05;68.67
40872;BME280;26591;43.264;26.940;2023-03-13T04:30:29;99551.63;;;2.95;69.24
40872;BME280;26591;43.264;26.940;2023-03-13T04:32:55;99560.41;;;2.94;71.25
40872;BME280;26591;43.264;26.940;2023-03-13T04:35:20;99565.34;;;3.12;73.22
40872;BME280;26591;43.264;26.940;2023-03-13T04:37:46;99574.84;;;3.39;72.99
40872;BME280;26591;43.264;26.940;2023-03-13T04:40:12;99579.34;;;3.24;71.37
40872;BME280;26591;43.264;26.940;2023-03-13T04:42:39;99578.25;;;3.52;71.18
40872;BME280;26591;43.264;26.940;2023-03-13T04:45:09;99571.91;;;4.29;70.09
40872;BME280;26591;43.264;26.940;2023-03-13T04:47:37;99570.56;;;4.48;69.65
40872;BME280;26591;43.264;26.940;2023-03-13T04:50:03;99571.44;;;5.07;68.32
40872;BME280;26591;43.264;26.940;2023-03-13T04:52:29;99577.25;;;5.78;66.63
40872;BME280;26591;43.264;26.940;2023-03-13T04:54:54;99578.75;;;6.48;64.46
40872;BME280;26591;43.264;26.940;2023-03-13T04:57:20;99585.13;;;6.87;61.62
40872;BME280;26591;43.264;26.940;2023-03-13T04:59:45;99587.81;;;7.18;60.03
40872;BME280;26591;43.264;26.940;2023-03-13T05:02:11;99590.00;;;7.85;58.48
40872;BME280;26591;43.264;26.940;2023-03-13T05:04:37;99592.44;;;8.57;55.72
40872;BME280;26591;43.264;26.940;2023-03-13T05:07:03;99598.06;;;9.21;53.85
40872;BME280;26591;43.264;26.940;2023-03-13T05:09:28;99600.69;;;9.59;53.16
40872;BME280;26591;43.264;26.940;2023-03-13T05:11:54;99599.38;;;9.73;52.11
40872;BME280;26591;43.264;26.940;2023-03-13T05:14:19;99603.66;;;10.02;51.31
40872;BME280;26591;43.264;26.940;2023-03-13T05:16:45;99603.44;;;10.41;50.27
40872;BME280;26591;43.264;26.940;2023-03-13T05:19:10;99605.09;;;10.60;49.81
40872;BME280;26591;43.264;26.940;2023-03-13T05:21:36;99605.03;;;10.96;49.21
40872;BME280;26591;43.264;26.940;2023-03-13T05:24:03;99605.94;;;11.32;47.93
40872;BME280;26591;43.264;26.940;2023-03-13T05:26:28;99610.75;;;11.36;47.87
40872;BME280;26591;43.264;26.940;2023-03-13T05:28:54;99605.44;;;11.36;47.94
40872;BME280;26591;43.264;26.940;2023-03-13T05:31:19;99612.09;;;11.67;47.37
40872;BME280;26591;43.264;26.940;2023-03-13T05:33:45;99607.66;;;11.84;46.90
40872;BME280;26591;43.264;26.940;2023-03-13T05:36:10;99617.28;;;12.44;46.18
40872;BME280;26591;43.264;26.940;2023-03-13T05:38:36;99616.13;;;12.55;45.09
40872;BME280;26591;43.264;26.940;2023-03-13T05:41:01;99624.63;;;12.67;45.03
40872;BME280;26591;43.264;26.940;2023-03-13T05:43:27;99611.81;;;12.95;45.11
40872;BME280;26591;43.264;26.940;2023-03-13T05:45:52;99627.41;;;13.15;44.47
40872;BME280;26591;43.264;26.940;2023-03-13T05:48:18;99630.19;;;13.47;43.67
40872;BME280;26591;43.264;26.940;2023-03-13T05:50:43;99635.47;;;13.63;42.92
40872;BME280;26591;43.264;26.940;2023-03-13T05:53:09;99633.22;;;13.92;42.59
40872;BME280;26591;43.264;26.940;2023-03-13T05:55:34;99632.09;;;13.78;42.47
40872;BME280;26591;43.264;26.940;2023-03-13T05:57:59;99633.47;;;14.05;42.47
40872;BME280;26591;43.264;26.940;2023-03-13T06:00:25;99639.53;;;14.22;41.42
40872;BME280;26591;43.264;26.940;2023-03-13T06:02:50;99640.31;;;14.31;41.22
40872;BME280;26591;43.264;26.940;2023-03-13T06:05:16;99649.91;;;14.09;42.49
40872;BME280;26591;43.264;26.940;2023-03-13T06:07:41;99647.13;;;14.02;41.83
40872;BME280;26591;43.264;26.940;2023-03-13T06:10:07;99651.84;;;14.23;41.60
40872;BME280;26591;43.264;26.940;2023-03-13T06:12:33;99649.03;;;14.25;41.58
40872;BME280;26591;43.264;26.940;2023-03-13T06:15:00;99656.72;;;14.43;42.01
40872;BME280;26591;43.264;26.940;2023-03-13T06:17:26;99662.78;;;14.60;41.56
40872;BME280;26591;43.264;26.940;2023-03-13T06:19:52;99658.00;;;14.78;40.57
40872;BME280;26591;43.264;26.940;2023-03-13T06:22:18;99666.78;;;14.87;40.75
40872;BME280;26591;43.264;26.940;2023-03-13T06:24:43;99659.78;;;14.86;40.22
40872;BME280;26591;43.264;26.940;2023-03-13T06:27:10;99659.31;;;14.83;39.92
40872;BME280;26591;43.264;26.940;2023-03-13T06:29:36;99663.09;;;14.88;41.08
40872;BME280;26591;43.264;26.940;2023-03-13T06:32:01;99669.69;;;14.77;40.54
40872;BME280;26591;43.264;26.940;2023-03-13T06:34:27;99668.47;;;14.80;40.17
40872;BME280;26591;43.264;26.940;2023-03-13T06:36:52;99669.44;;;14.87;40.51
40872;BME280;26591;43.264;26.940;2023-03-13T06:39:18;99673.25;;;14.61;40.39
40872;BME280;26591;43.264;26.940;2023-03-13T06:41:43;99672.25;;;14.86;39.94
40872;BME280;26591;43.264;26.940;2023-03-13T06:44:09;99671.34;;;14.78;40.13
40872;BME280;26591;43.264;26.940;2023-03-13T06:46:34;99685.88;;;15.14;39.83
40872;BME280;26591;43.264;26.940;2023-03-13T06:49:00;99686.06;;;15.13;39.07
40872;BME280;26591;43.264;26.940;2023-03-13T06:51:29;99683.00;;;15.01;39.98
40872;BME280;26591;43.264;26.940;2023-03-13T06:53:54;99674.72;;;14.41;40.49
40872;BME280;26591;43.264;26.940;2023-03-13T06:56:20;99672.75;;;14.58;40.14
40872;BME280;26591;43.264;26.940;2023-03-13T06:58:47;99681.00;;;14.79;40.29
40872;BME280;26591;43.264;26.940;2023-03-13T07:01:14;99680.78;;;14.81;40.10
40872;BME280;26591;43.264;26.940;2023-03-13T07:03:40;99679.19;;;14.09;41.45
40872;BME280;26591;43.264;26.940;2023-03-13T07:06:06;99678.13;;;13.86;41.29
40872;BME280;26591;43.264;26.940;2023-03-13T07:08:33;99677.56;;;13.35;42.18
40872;BME280;26591;43.264;26.940;2023-03-13T07:11:00;99673.31;;;13.82;41.83
40872;BME280;26591;43.264;26.940;2023-03-13T07:13:26;99673.03;;;13.68;41.77
40872;BME280;26591;43.264;26.940;2023-03-13T07:15:52;99666.94;;;13.10;42.87
40872;BME280;26591;43.264;26.940;2023-03-13T07:18:18;99669.59;;;13.51;42.14
40872;BME280;26591;43.264;26.940;2023-03-13T07:20:44;99660.63;;;13.36;42.17
40872;BME280;26591;43.264;26.940;2023-03-13T07:23:09;99662.31;;;13.20;42.96
40872;BME280;26591;43.264;26.940;2023-03-13T07:25:35;99660.47;;;12.96;44.09
40872;BME280;26591;43.264;26.940;2023-03-13T07:28:00;99658.28;;;13.24;43.06
40872;BME280;26591;43.264;26.940;2023-03-13T07:30:26;99653.91;;;12.16;44.74
40872;BME280;26591;43.264;26.940;2023-03-13T07:32:52;99659.44;;;12.39;44.59
40872;BME280;26591;43.264;26.940;2023-03-13T07:35:18;99653.94;;;11.89;45.69
40872;BME280;26591;43.264;26.940;2023-03-13T07:37:43;99647.59;;;10.77;47.09
40872;BME280;26591;43.264;26.940;2023-03-13T07:40:10;99653.63;;;10.87;47.38
40872;BME280;26591;43.264;26.940;2023-03-13T07:42:39;99663.44;;;11.39;46.92
40872;BME280;26591;43.264;26.940;2023-03-13T07:45:05;99663.13;;;11.16;47.00
40872;BME280;26591;43.264;26.940;2023-03-13T07:47:33;99661.88;;;11.28;47.21
40872;BME280;26591;43.264;26.940;2023-03-13T07:49:59;99663.97;;;11.78;46.13
40872;BME280;26591;43.264;26.940;2023-03-13T07:52:24;99654.56;;;12.18;45.89
40872;BME280;26591;43.264;26.940;2023-03-13T07:54:52;99655.47;;;12.51;44.51
40872;BME280;26591;43.264;26.940;2023-03-13T07:57:17;99648.78;;;12.31;45.49
40872;BME280;26591;43.264;26.940;2023-03-13T07:59:43;99659.94;;;12.51;44.67
40872;BME280;26591;43.264;26.940;2023-03-13T08:02:11;99660.63;;;12.70;44.23
40872;BME280;26591;43.264;26.940;2023-03-13T08:04:38;99651.66;;;13.12;43.82
40872;BME280;26591;43.264;26.940;2023-03-13T08:07:08;99658.63;;;12.47;44.83
40872;BME280;26591;43.264;26.940;2023-03-13T08:09:33;99656.66;;;12.74;43.96
40872;BME280;26591;43.264;26.940;2023-03-13T08:11:59;99650.34;;;12.66;43.43
40872;BME280;26591;43.264;26.940;2023-03-13T08:14:24;99644.78;;;12.18;44.59
40872;BME280;26591;43.264;26.940;2023-03-13T08:16:50;99645.53;;;12.95;43.66
40872;BME280;26591;43.264;26.940;2023-03-13T08:19:16;99647.69;;;12.75;43.01
40872;BME280;26591;43.264;26.940;2023-03-13T08:21:42;99644.97;;;12.25;43.88
40872;BME280;26591;43.264;26.940;2023-03-13T08:24:09;99647.50;;;13.18;42.54
40872;BME280;26591;43.264;26.940;2023-03-13T08:26:37;99646.66;;;13.50;41.10
40872;BME280;26591;43.264;26.940;2023-03-13T08:29:05;99652.97;;;13.49;41.57
40872;BME280;26591;43.264;26.940;2023-03-13T08:31:34;99647.47;;;13.34;42.00
40872;BME280;26591;43.264;26.940;2023-03-13T08:34:00;99647.81;;;13.56;41.42
40872;BME280;26591;43.264;26.940;2023-03-13T08:36:34;99643.00;;;13.91;40.43
40872;BME280;26591;43.264;26.940;2023-03-13T08:39:11;99646.16;;;13.47;41.09
40872;BME280;26591;43.264;26.940;2023-03-13T08:41:37;99647.84;;;13.87;40.05
40872;BME280;26591;43.264;26.940;2023-03-13T08:44:08;99642.22;;;14.77;38.72
40872;BME280;26591;43.264;26.940;2023-03-13T08:46:35;99638.09;;;14.66;36.29
40872;BME280;26591;43.264;26.940;2023-03-13T08:49:02;99634.13;;;14.39;38.16
40872;BME280;26591;43.264;26.940;2023-03-13T08:51:28;99630.53;;;14.55;36.02
40872;BME280;26591;43.264;26.940;2023-03-13T08:53:55;99633.88;;;13.94;35.54
40872;BME280;26591;43.264;26.940;2023-03-13T08:56:26;99635.66;;;14.33;34.99
40872;BME280;26591;43.264;26.940;2023-03-13T08:58:54;99634.34;;;14.29;33.26
40872;BME280;26591;43.264;26.940;2023-03-13T09:01:22;99635.88;;;14.23;33.21
40872;BME280;26591;43.264;26.940;2023-03-13T09:03:49;99643.22;;;14.44;33.48
40872;BME280;26591;43.264;26.940;2023-03-13T09:06:15;99641.94;;;14.63;33.57
40872;BME280;26591;43.264;26.940;2023-03-13T09:08:41;99640.28;;;14.62;34.62
40872;BME280;26591;43.264;26.940;2023-03-13T09:11:09;99645.00;;;14.84;34.11
40872;BME280;26591;43.264;26.940;2023-03-13T09:13:37;99644.78;;;14.62;34.23
40872;BME280;26591;43.264;26.940;2023-03-13T09:16:08;99638.69;;;15.00;33.95
40872;BME280;26591;43.264;26.940;2023-03-13T09:18:34;99638.41;;;14.48;33.06
40872;BME280;26591;43.264;26.940;2023-03-13T09:21:00;99636.47;;;13.62;34.11
40872;BME280;26591;43.264;26.940;2023-03-13T09:23:25;99629.00;;;13.66;34.85
40872;BME280;26591;43.264;26.940;2023-03-13T09:25:52;99627.69;;;13.53;36.54
40872;BME280;26591;43.264;26.940;2023-03-13T09:28:19;99629.13;;;13.72;35.85
40872;BME280;26591;43.264;26.940;2023-03-13T09:30:44;99632.81;;;13.63;34.19
40872;BME280;26591;43.264;26.940;2023-03-13T09:33:10;99624.38;;;13.51;33.17
40872;BME280;26591;43.264;26.940;2023-03-13T09:35:39;99628.06;;;13.25;34.23
40872;BME280;26591;43.264;26.940;2023-03-13T09:38:04;99636.34;;;12.31;35.24
40872;BME280;26591;43.264;26.940;2023-03-13T09:40:36;99622.13;;;12.98;32.63
40872;BME280;26591;43.264;26.940;2023-03-13T09:43:03;99616.72;;;13.56;32.69
40872;BME280;26591;43.264;26.940;2023-03-13T09:45:33;99615.44;;;14.15;31.43
40872;BME280;26591;43.264;26.940;2023-03-13T09:48:25;99620.22;;;13.49;30.29
40872;BME280;26591;43.264;26.940;2023-03-13T09:51:17;99618.81;;;12.63;29.59
40872;BME280;26591;43.264;26.940;2023-03-13T09:53:45;99629.88;;;13.17;29.71
40872;BME280;26591;43.264;26.940;2023-03-13T09:56:19;99607.66;;;13.74;28.52
40872;BME280;26591;43.264;26.940;2023-03-13T10:01:59;99616.97;;;13.78;29.65
40872;BME280;26591;43.264;26.940;2023-03-13T10:04:55;99609.34;;;12.61;29.63
40872;BME280;26591;43.264;26.940;2023-03-13T10:07:23;99606.34;;;12.72;30.95
40872;BME280;26591;43.264;26.940;2023-03-13T10:09:49;99614.47;;;13.04;32.08
40872;BME280;26591;43.264;26.940;2023-03-13T10:12:26;99611.84;;;12.62;32.74
40872;BME280;26591;43.264;26.940;2023-03-13T10:17:38;99604.13;;;13.42;31.43
40872;BME280;26591;43.264;26.940;2023-03-13T10:22:45;99597.44;;;14.72;30.18
40872;BME280;26591;43.264;26.940;2023-03-13T10:25:35;99598.31;;;14.88;29.53
40872;BME280;26591;43.264;26.940;2023-03-13T10:28:03;99594.41;;;13.66;29.92
40872;BME280;26591;43.264;26.940;2023-03-13T10:30:30;99588.31;;;13.88;29.86
40872;BME280;26591;43.264;26.940;2023-03-13T10:32:59;99584.94;;;14.26;29.95
40872;BME280;26591;43.264;26.940;2023-03-13T10:35:32;99588.63;;;13.94;29.93
40872;BME280;26591;43.264;26.940;2023-03-13T10:38:04;99582.16;;;14.66;30.03
40872;BME280;26591;43.264;26.940;2023-03-13T10:40:30;99584.72;;;14.98;29.40
40872;BME280;26591;43.264;26.940;2023-03-13T10:43:04;99580.69;;;15.17;29.65
40872;BME280;26591;43.264;26.940;2023-03-13T10:45:34;99580.84;;;14.15;30.58
40872;BME280;26591;43.264;26.940;2023-03-13T10:48:02;99584.88;;;13.80;38.36
40872;BME280;26591;43.264;26.940;2023-03-13T10:50:32;99576.25;;;14.32;31.79
40872;BME280;26591;43.264;26.940;2023-03-13T10:53:11;99578.19;;;15.00;29.50
40872;BME280;26591;43.264;26.940;2023-03-13T10:55:44;99563.94;;;15.68;28.46
40872;BME280;26591;43.264;26.940;2023-03-13T10:58:18;99571.03;;;15.46;28.45
40872;BME280;26591;43.264;26.940;2023-03-13T11:00:44;99562.00;;;14.87;28.06
40872;BME280;26591;43.264;26.940;2023-03-13T11:03:36;99549.97;;;14.53;28.28
40872;BME280;26591;43.264;26.940;2023-03-13T11:06:02;99542.16;;;14.51;28.48
40872;BME280;26591;43.264;26.940;2023-03-13T11:08:34;99545.13;;;15.39;28.25
40872;BME280;26591;43.264;26.940;2023-03-13T11:11:03;99540.78;;;16.05;27.47
40872;BME280;26591;43.264;26.940;2023-03-13T11:13:40;99531.81;;;16.56;26.47
40872;BME280;26591;43.264;26.940;2023-03-13T11:16:20;99535.09;;;16.08;28.04
40872;BME280;26591;43.264;26.940;2023-03-13T11:24:16;99524.13;;;15.66;27.42
40872;BME280;26591;43.264;26.940;2023-03-13T11:26:59;99517.94;;;14.23;29.33
40872;BME280;26591;43.264;26.940;2023-03-13T11:29:39;99515.06;;;14.01;29.68
40872;BME280;26591;43.264;26.940;2023-03-13T11:32:24;99512.53;;;14.08;30.53
40872;BME280;26591;43.264;26.940;2023-03-13T11:35:00;99501.47;;;14.19;29.35
40872;BME280;26591;43.264;26.940;2023-03-13T11:37:32;99489.78;;;14.43;29.84
40872;BME280;26591;43.264;26.940;2023-03-13T11:40:20;99492.72;;;15.32;29.22
40872;BME280;26591;43.264;26.940;2023-03-13T11:48:44;99481.59;;;16.23;28.37
40872;BME280;26591;43.264;26.940;2023-03-13T11:51:45;99480.63;;;16.53;28.65
40872;BME280;26591;43.264;26.940;2023-03-13T11:57:20;99476.56;;;16.63;27.04
40872;BME280;26591;43.264;26.940;2023-03-13T12:03:00;99471.75;;;15.80;29.05
40872;BME280;26591;43.264;26.940;2023-03-13T12:05:37;99478.16;;;14.59;28.77
40872;BME280;26591;43.264;26.940;2023-03-13T12:08:10;99464.94;;;13.89;28.73
40872;BME280;26591;43.264;26.940;2023-03-13T12:10:40;99466.31;;;14.62;28.75
40872;BME280;26591;43.264;26.940;2023-03-13T12:13:21;99473.94;;;15.40;27.50
40872;BME280;26591;43.264;26.940;2023-03-13T12:15:53;99469.63;;;14.64;29.05
40872;BME280;26591;43.264;26.940;2023-03-13T12:18:39;99460.78;;;13.64;30.19
40872;BME280;26591;43.264;26.940;2023-03-13T12:21:27;99458.41;;;14.15;30.25
40872;BME280;26591;43.264;26.940;2023-03-13T12:24:18;99465.34;;;14.78;29.45
40872;BME280;26591;43.264;26.940;2023-03-13T12:26:51;99459.66;;;14.96;28.60
40872;BME280;26591;43.264;26.940;2023-03-13T12:32:19;99456.69;;;15.21;28.41
40872;BME280;26591;43.264;26.940;2023-03-13T12:35:10;99453.38;;;15.70;26.99
40872;BME280;26591;43.264;26.940;2023-03-13T12:40:54;99449.72;;;14.37;28.86
40872;BME280;26591;43.264;26.940;2023-03-13T12:43:32;99443.75;;;15.03;28.63
40872;BME280;26591;43.264;26.940;2023-03-13T13:00:00;99441.19;;;14.41;29.51
40872;BME280;26591;43.264;26.940;2023-03-13T13:02:31;99439.13;;;14.13;30.42
40872;BME280;26591;43.264;26.940;2023-03-13T13:04:59;99439.41;;;14.03;30.70
40872;BME280;26591;43.264;26.940;2023-03-13T13:07:33;99436.81;;;14.48;29.54
40872;BME280;26591;43.264;26.940;2023-03-13T13:10:00;99440.63;;;14.84;29.45
40872;BME280;26591;43.264;26.940;2023-03-13T13:12:27;99439.25;;;14.73;29.43
40872;BME280;26591;43.264;26.940;2023-03-13T13:14:56;99436.16;;;14.31;30.03
40872;BME280;26591;43.264;26.940;2023-03-13T13:17:30;99432.66;;;13.93;30.64
40872;BME280;26591;43.264;26.940;2023-03-13T13:20:51;99425.59;;;14.38;30.21
40872;BME280;26591;43.264;26.940;2023-03-13T13:25:49;99440.00;;;15.49;29.54
40872;BME280;26591;43.264;26.940;2023-03-13T13:30:45;99436.50;;;15.85;31.12
40872;BME280;26591;43.264;26.940;2023-03-13T13:35:44;99438.88;;;16.23;33.07
40872;BME280;26591;43.264;26.940;2023-03-13T13:43:37;99425.53;;;16.23;27.82
40872;BME280;26591;43.264;26.940;2023-03-13T13:46:23;99421.88;;;16.31;27.56
40872;BME280;26591;43.264;26.940;2023-03-13T13:51:30;99421.03;;;15.22;29.64
40872;BME280;26591;43.264;26.940;2023-03-13T13:56:35;99430.03;;;14.46;30.17
40872;BME280;26591;43.264;26.940;2023-03-13T14:04:40;99416.53;;;14.62;30.03
40872;BME280;26591;43.264;26.940;2023-03-13T14:07:14;99413.00;;;14.32;30.92
40872;BME280;26591;43.264;26.940;2023-03-13T14:10:02;99405.47;;;14.21;31.00
40872;BME280;26591;43.264;26.940;2023-03-13T14:12:33;99420.31;;;14.15;30.53
40872;BME280;26591;43.264;26.940;2023-03-13T14:15:23;99412.53;;;13.90;31.12
40872;BME280;26591;43.264;26.940;2023-03-13T14:17:54;99411.53;;;13.91;30.80
40872;BME280;26591;43.264;26.940;2023-03-13T14:20:33;99408.34;;;14.34;30.50
40872;BME280;26591;43.264;26.940;2023-03-13T14:23:05;99402.34;;;14.17;29.88
40872;BME280;26591;43.264;26.940;2023-03-13T14:25:46;99402.09;;;13.88;30.62